Time;durP1;ratioP1;P1;durP2;ratioP2;P2;SDS_P1;SDS_P2;PMS_P1;PMS_P2;Temp;Humidity;BMP_temperature;BMP_pressure;BME280_temperature;BME280_humidity;BME280_pressure;Samples;Min_cycle;Max_cycle;Signal;HPM_P1;HPM_P2
2022/04/12 04:12:17;;;;;;;;;;;;;;;9.68;67.67;96548.03;4269213;27;10188;-70
2022/04/12 04:14:18;;;;;;;;;;;;;;;9.69;67.70;96550.47;4264108;27;5617;-71
2022/04/12 04:16:20;;;;;;;;;;;;;;;9.66;67.97;96550.84;4265187;27;5631;-70
2022/04/12 04:18:22;;;;;;;;;;;;;;;9.63;68.16;96551.25;4265479;27;6893;-69
2022/04/12 04:20:24;;;;;;;;;;;;;;;9.61;68.26;96550.59;4240156;27;5664;-71
2022/04/12 04:22:25;;;;;;;;;;;;;;;9.62;68.28;96552.22;4252538;27;5628;-71
2022/04/12 04:24:27;;;;;;;;;;;;;;;9.63;68.42;96553.91;4263966;27;5570;-72
2022/04/12 04:26:29;;;;;;;;;;;;;;;9.65;67.95;96551.88;4265567;27;5620;-70
2022/04/12 04:28:33;;;;;;;;;;;;;;;9.67;67.56;96555.13;4265161;27;5718;-70
2022/04/12 04:30:36;;;;;;;;;;;;;;;9.68;67.87;96556.75;4265072;27;5663;-71
2022/04/12 04:32:39;;;;;;;;;;;;;;;9.69;67.34;96555.75;4265028;27;6298;-71
2022/04/12 04:34:41;;;;;;;;;;;;;;;9.71;67.55;96551.09;4265364;27;5711;-71
2022/04/12 04:36:43;;;;;;;;;;;;;;;9.70;67.17;96554.72;4251823;27;5694;-72
2022/04/12 04:38:44;;;;;;;;;;;;;;;9.69;67.09;96553.09;4233856;27;5678;-73
2022/04/12 04:40:46;;;;;;;;;;;;;;;9.68;67.05;96559.41;4231256;27;5659;-73
2022/04/12 04:42:51;;;;;;;;;;;;;;;9.63;67.07;96552.06;4229539;28;5624;-73
2022/04/12 04:44:52;;;;;;;;;;;;;;;9.47;68.31;96559.44;4237046;27;5640;-73
2022/04/12 04:46:54;;;;;;;;;;;;;;;9.42;68.05;96561.84;4230696;28;5693;-73
2022/04/12 04:48:56;;;;;;;;;;;;;;;9.42;67.93;96561.84;4244728;27;5600;-73
2022/04/12 04:50:57;;;;;;;;;;;;;;;9.40;68.94;96554.13;4230970;28;5747;-72
2022/04/12 04:53:02;;;;;;;;;;;;;;;9.30;69.13;96554.47;4234994;27;5661;-71
2022/04/12 04:55:04;;;;;;;;;;;;;;;9.29;69.50;96565.22;4246719;27;5828;-72
2022/04/12 04:57:06;;;;;;;;;;;;;;;9.40;68.25;96569.97;4247958;27;5673;-73
2022/04/12 04:59:13;;;;;;;;;;;;;;;9.46;68.69;96568.38;4244359;27;5670;-73
2022/04/12 05:01:14;;;;;;;;;;;;;;;9.53;67.72;96563.97;4243709;27;5734;-72
2022/04/12 05:03:17;;;;;;;;;;;;;;;9.48;68.44;96571.63;4244483;27;5649;-72
2022/04/12 05:05:19;;;;;;;;;;;;;;;9.55;68.24;96575.13;4229482;28;6308;-73
2022/04/12 05:07:25;;;;;;;;;;;;;;;9.65;67.67;96577.44;4230763;28;5810;-72
2022/04/12 05:09:27;;;;;;;;;;;;;;;9.62;67.97;96576.81;4230334;27;5677;-72
2022/04/12 05:11:31;;;;;;;;;;;;;;;9.68;67.13;96577.88;4231359;27;5756;-72
2022/04/12 05:13:32;;;;;;;;;;;;;;;9.73;67.39;96578.09;4218779;28;5819;-73
2022/04/12 05:15:34;;;;;;;;;;;;;;;9.77;66.77;96582.00;4218901;28;5826;-72
2022/04/12 05:17:37;;;;;;;;;;;;;;;9.79;66.93;96579.97;4219121;28;5674;-73
2022/04/12 05:19:39;;;;;;;;;;;;;;;9.83;66.66;96575.13;4220294;28;6560;-73
2022/04/12 05:21:42;;;;;;;;;;;;;;;9.84;67.00;96582.03;4227104;27;5801;-72
2022/04/12 05:23:44;;;;;;;;;;;;;;;9.85;66.76;96583.66;4252987;27;5731;-73
2022/04/12 05:25:45;;;;;;;;;;;;;;;9.86;66.45;96582.69;4252862;27;5628;-73
2022/04/12 05:27:47;;;;;;;;;;;;;;;9.85;66.76;96581.88;4246735;27;5657;-73
2022/04/12 05:29:49;;;;;;;;;;;;;;;9.93;66.39;96584.31;4223712;28;5836;-73
2022/04/12 05:31:51;;;;;;;;;;;;;;;10.02;65.94;96584.19;4218705;28;5766;-73
2022/04/12 05:33:52;;;;;;;;;;;;;;;9.98;65.97;96588.22;4232433;28;5856;-73
2022/04/12 05:35:54;;;;;;;;;;;;;;;9.98;65.96;96588.22;4223723;28;5730;-68
2022/04/12 05:37:56;;;;;;;;;;;;;;;10.07;65.58;96592.31;4217720;28;5623;-64
2022/04/12 05:39:57;;;;;;;;;;;;;;;10.09;65.67;96583.22;4233463;28;5652;-66
2022/04/12 05:42:00;;;;;;;;;;;;;;;10.10;65.60;96584.03;4233775;27;5759;-66
2022/04/12 05:44:01;;;;;;;;;;;;;;;10.11;65.60;96583.03;4223362;28;5739;-66
2022/04/12 05:46:03;;;;;;;;;;;;;;;10.14;65.63;96587.91;4226788;27;5759;-67
2022/04/12 05:48:05;;;;;;;;;;;;;;;10.11;66.16;96588.31;4218442;28;5896;-66
2022/04/12 05:50:13;;;;;;;;;;;;;;;10.01;66.41;96599.22;4218798;28;5689;-66
2022/04/12 05:52:15;;;;;;;;;;;;;;;10.04;66.26;96598.00;4218726;28;5659;-66
2022/04/12 05:54:17;;;;;;;;;;;;;;;10.12;65.82;96596.03;4218653;28;5707;-66
2022/04/12 05:56:18;;;;;;;;;;;;;;;9.99;66.63;96600.41;4219220;28;5678;-66
2022/04/12 05:58:21;;;;;;;;;;;;;;;9.90;67.31;96591.81;4218840;28;5761;-66
2022/04/12 06:00:24;;;;;;;;;;;;;;;10.04;68.13;96598.00;4219015;28;5687;-66
2022/04/12 06:02:26;;;;;;;;;;;;;;;10.08;67.53;96586.03;4218225;28;5697;-66
2022/04/12 06:04:29;;;;;;;;;;;;;;;10.00;68.58;96594.13;4218466;28;5654;-66
2022/04/12 06:06:32;;;;;;;;;;;;;;;10.15;67.62;96592.16;4200372;28;5717;-66
2022/04/12 06:08:34;;;;;;;;;;;;;;;10.19;67.64;96596.88;4223196;28;5675;-66
2022/04/12 06:10:36;;;;;;;;;;;;;;;10.29;67.25;96599.19;4218234;28;5728;-66
2022/04/12 06:12:38;;;;;;;;;;;;;;;10.19;67.98;96596.03;4247959;27;5639;-66
2022/04/12 06:14:39;;;;;;;;;;;;;;;10.28;67.46;96600.19;4250547;27;5609;-66
2022/04/12 06:16:41;;;;;;;;;;;;;;;10.17;68.64;96592.78;4242993;27;5720;-66
2022/04/12 06:18:43;;;;;;;;;;;;;;;10.19;69.46;96598.69;4235422;28;5652;-66
2022/04/12 06:20:45;;;;;;;;;;;;;;;10.23;69.04;96599.16;4234723;28;5677;-67
2022/04/12 06:22:47;;;;;;;;;;;;;;;10.34;69.49;96610.00;4235164;28;5743;-66
2022/04/12 06:24:49;;;;;;;;;;;;;;;10.61;68.09;96607.44;4234120;28;5735;-66
2022/04/12 06:26:51;;;;;;;;;;;;;;;10.50;68.91;96603.53;4235464;27;5740;-66
2022/04/12 06:28:52;;;;;;;;;;;;;;;10.46;68.82;96611.06;4235089;28;5664;-67
2022/04/12 06:30:55;;;;;;;;;;;;;;;10.38;68.63;96611.22;4234551;27;6246;-67
2022/04/12 06:32:57;;;;;;;;;;;;;;;10.42;68.60;96611.66;4248549;27;5624;-66
2022/04/12 06:34:59;;;;;;;;;;;;;;;10.32;69.96;96614.66;4251758;27;5656;-66
2022/04/12 06:37:01;;;;;;;;;;;;;;;10.44;68.51;96613.09;4251594;27;5711;-66
2022/04/12 06:39:02;;;;;;;;;;;;;;;10.51;68.33;96615.75;4239262;27;5848;-66
2022/04/12 06:41:04;;;;;;;;;;;;;;;10.57;67.83;96608.88;4234337;28;5828;-66
2022/04/12 06:43:06;;;;;;;;;;;;;;;10.56;68.13;96615.19;4233570;28;5690;-66
2022/04/12 06:45:11;;;;;;;;;;;;;;;10.58;67.92;96615.78;4234732;28;5665;-66
2022/04/12 06:47:15;;;;;;;;;;;;;;;10.63;67.52;96616.00;4232688;27;5606;-66
2022/04/12 06:49:17;;;;;;;;;;;;;;;10.58;68.74;96616.59;4234612;28;5782;-67
2022/04/12 06:51:19;;;;;;;;;;;;;;;10.63;68.61;96618.63;4234114;28;5914;-66
2022/04/12 06:53:22;;;;;;;;;;;;;;;10.64;68.02;96621.09;4234689;28;5737;-66
2022/04/12 06:55:26;;;;;;;;;;;;;;;10.65;68.32;96614.81;4234754;28;5725;-66
2022/04/12 06:57:35;;;;;;;;;;;;;;;10.64;68.62;96614.97;4216239;28;5682;-67
2022/04/12 06:59:36;;;;;;;;;;;;;;;10.60;68.47;96609.28;4217757;28;5674;-66
2022/04/12 07:01:38;;;;;;;;;;;;;;;10.61;68.30;96613.56;4216877;28;5685;-66
2022/04/12 07:03:40;;;;;;;;;;;;;;;10.46;68.71;96619.00;4217857;28;5709;-66
2022/04/12 07:05:42;;;;;;;;;;;;;;;10.57;68.43;96627.38;4217515;28;5666;-66
2022/04/12 07:07:44;;;;;;;;;;;;;;;10.69;67.78;96617.88;4218124;28;5791;-66
2022/04/12 07:09:46;;;;;;;;;;;;;;;10.78;67.10;96621.97;4234214;27;6335;-67
2022/04/12 07:11:48;;;;;;;;;;;;;;;10.60;68.29;96614.56;4239472;27;5633;-66
2022/04/12 07:13:49;;;;;;;;;;;;;;;10.65;67.45;96616.66;4251208;27;5635;-67
2022/04/12 07:15:51;;;;;;;;;;;;;;;10.72;67.13;96617.47;4245020;27;5749;-66
2022/04/12 07:17:53;;;;;;;;;;;;;;;10.79;66.93;96613.84;4215848;28;5615;-66
2022/04/12 07:19:57;;;;;;;;;;;;;;;10.85;66.39;96621.97;4237245;27;5639;-66
2022/04/12 07:21:58;;;;;;;;;;;;;;;10.87;66.47;96628.69;4250841;27;5647;-66
2022/04/12 07:24:05;;;;;;;;;;;;;;;10.76;66.68;96629.28;4251346;27;5749;-66
2022/04/12 07:26:06;;;;;;;;;;;;;;;10.81;66.55;96633.97;4251176;27;5652;-66
2022/04/12 07:28:08;;;;;;;;;;;;;;;10.87;66.12;96631.34;4250027;27;5613;-66
2022/04/12 07:30:10;;;;;;;;;;;;;;;10.82;67.22;96643.53;4243061;27;5635;-67
2022/04/12 07:32:13;;;;;;;;;;;;;;;10.61;67.79;96644.47;4233583;28;6340;-66
2022/04/12 07:34:15;;;;;;;;;;;;;;;10.64;67.66;96646.72;4234086;27;5068;-66
2022/04/12 07:36:17;;;;;;;;;;;;;;;10.75;66.52;96639.03;4232492;27;5723;-66
2022/04/12 07:38:18;;;;;;;;;;;;;;;10.75;66.52;96636.38;4234113;28;5741;-66
2022/04/12 07:40:20;;;;;;;;;;;;;;;10.81;66.16;96636.63;4232334;27;5683;-66
2022/04/12 07:42:23;;;;;;;;;;;;;;;10.76;66.97;96639.88;4233771;27;5653;-66
2022/04/12 07:44:25;;;;;;;;;;;;;;;10.75;66.71;96639.03;4234123;28;5783;-66
2022/04/12 07:46:26;;;;;;;;;;;;;;;10.86;66.15;96650.06;4232752;28;6374;-67
2022/04/12 07:48:28;;;;;;;;;;;;;;;10.59;66.08;96647.31;4232526;28;5810;-66
2022/04/12 07:50:30;;;;;;;;;;;;;;;10.63;66.33;96645.06;4233574;28;5820;-67
2022/04/12 07:52:31;;;;;;;;;;;;;;;10.74;65.92;96647.16;4233198;27;5763;-67
2022/04/12 07:54:33;;;;;;;;;;;;;;;10.75;65.35;96648.78;4233748;27;5712;-67
2022/04/12 07:56:34;;;;;;;;;;;;;;;10.75;65.49;96648.78;4233774;28;5650;-67
2022/04/12 07:58:36;;;;;;;;;;;;;;;10.92;64.82;96646.63;4233826;28;5657;-66
2022/04/12 08:00:38;;;;;;;;;;;;;;;10.95;64.79;96652.31;4233699;28;5775;-66
2022/04/12 08:02:40;;;;;;;;;;;;;;;11.02;64.22;96642.59;4233343;28;5654;-67
2022/04/12 08:04:43;;;;;;;;;;;;;;;11.05;63.96;96644.81;4247514;27;5718;-66
2022/04/12 08:06:45;;;;;;;;;;;;;;;11.03;62.21;96644.22;4240374;27;6398;-67
2022/04/12 08:08:48;;;;;;;;;;;;;;;11.07;62.82;96642.78;4232400;28;5688;-66
2022/04/12 08:10:50;;;;;;;;;;;;;;;11.17;62.62;96646.88;4233050;28;5716;-66
2022/04/12 08:12:55;;;;;;;;;;;;;;;11.18;62.46;96643.22;4248056;27;5723;-65
2022/04/12 08:14:57;;;;;;;;;;;;;;;11.08;63.17;96639.13;4250780;27;5635;-66
2022/04/12 08:16:58;;;;;;;;;;;;;;;11.08;63.35;96639.13;4249029;27;5608;-65
2022/04/12 08:19:00;;;;;;;;;;;;;;;11.07;63.27;96648.09;4243897;27;5773;-66
2022/04/12 08:21:02;;;;;;;;;;;;;;;11.11;62.22;96645.88;4232227;28;5629;-66
2022/04/12 08:23:04;;;;;;;;;;;;;;;11.19;61.73;96648.31;4233142;28;5695;-66
2022/04/12 08:25:07;;;;;;;;;;;;;;;11.25;61.82;96652.81;4233509;28;5732;-66
2022/04/12 08:27:09;;;;;;;;;;;;;;;11.28;61.93;96649.75;4233720;28;6330;-66
2022/04/12 08:29:11;;;;;;;;;;;;;;;11.38;61.98;96649.38;4233474;28;5760;-66
2022/04/12 08:31:13;;;;;;;;;;;;;;;11.27;59.93;96644.69;4215011;28;5739;-66
2022/04/12 08:33:15;;;;;;;;;;;;;;;11.20;60.36;96646.47;4231440;27;5746;-66
2022/04/12 08:35:18;;;;;;;;;;;;;;;11.28;60.88;96655.06;4232230;28;5714;-65
2022/04/12 08:37:21;;;;;;;;;;;;;;;11.43;62.39;96652.22;4217827;28;6490;-70
2022/04/12 08:39:22;;;;;;;;;;;;;;;11.38;61.40;96652.03;4250095;27;5631;-66
2022/04/12 08:41:26;;;;;;;;;;;;;;;11.32;61.03;96655.47;4249100;27;5586;-68
2022/04/12 08:43:30;;;;;;;;;;;;;;;11.43;61.57;96654.88;4250477;27;5624;-69
2022/04/12 08:45:35;;;;;;;;;;;;;;;11.44;60.91;96659.19;4241471;27;5751;-67
2022/04/12 08:47:37;;;;;;;;;;;;;;;11.44;60.78;96663.63;4243938;27;5648;-67
2022/04/12 08:49:40;;;;;;;;;;;;;;;11.50;61.05;96663.66;4236464;27;5641;-67
2022/04/12 08:51:45;;;;;;;;;;;;;;;11.43;60.01;96668.09;4236321;28;5649;-68
2022/04/12 08:53:47;;;;;;;;;;;;;;;11.49;60.38;96664.66;4236395;28;5716;-66
2022/04/12 08:55:48;;;;;;;;;;;;;;;11.53;60.11;96667.72;4233647;27;5105;-66
2022/04/12 08:57:50;;;;;;;;;;;;;;;11.56;60.35;96662.84;4233455;27;5775;-66
2022/04/12 08:59:52;;;;;;;;;;;;;;;11.57;59.98;96666.31;4234873;27;5714;-66
2022/04/12 09:01:54;;;;;;;;;;;;;;;11.46;60.53;96654.50;4241409;27;5631;-66
2022/04/12 09:03:56;;;;;;;;;;;;;;;11.50;60.76;96653.06;4253079;27;5683;-65
2022/04/12 09:05:57;;;;;;;;;;;;;;;11.65;61.35;96656.31;4235185;27;5616;-65
2022/04/12 09:07:59;;;;;;;;;;;;;;;11.73;60.74;96647.38;4252945;27;5643;-65
2022/04/12 09:10:06;;;;;;;;;;;;;;;11.80;60.31;96636.81;4235773;27;5657;-64
2022/04/12 09:12:10;;;;;;;;;;;;;;;11.88;59.75;96640.06;4244759;27;5099;-64
2022/04/12 09:14:13;;;;;;;;;;;;;;;11.88;60.35;96642.69;4245072;27;5642;-64
2022/04/12 09:16:15;;;;;;;;;;;;;;;11.99;60.69;96646.56;4236260;28;5661;-64
2022/04/12 09:18:39;;;;;;;;;;;;;;;12.03;60.55;96647.00;4235897;28;5645;-64
2022/04/12 09:20:41;;;;;;;;;;;;;;;12.02;60.44;96646.19;4234649;27;5751;-64
2022/04/12 09:22:43;;;;;;;;;;;;;;;12.09;59.75;96646.16;4233680;27;5752;-65
2022/04/12 09:24:56;;;;;;;;;;;;;;;12.11;60.14;96638.81;4237476;27;5590;-64
2022/04/12 09:26:58;;;;;;;;;;;;;;;12.20;58.85;96642.88;4251736;27;5633;-65
2022/04/12 09:29:00;;;;;;;;;;;;;;;12.26;59.35;96639.41;4251762;27;5609;-64
2022/04/12 09:31:10;;;;;;;;;;;;;;;12.11;58.41;96629.03;4245377;27;5728;-67
2022/04/12 09:33:36;;;;;;;;;;;;;;;12.23;58.37;96631.84;4218629;28;5694;-64
2022/04/12 09:35:38;;;;;;;;;;;;;;;12.20;58.15;96619.03;4239332;27;5597;-64
2022/04/12 09:37:43;;;;;;;;;;;;;;;12.19;58.15;96631.47;4252682;27;5712;-65
2022/04/12 09:40:17;;;;;;;;;;;;;;;11.97;57.79;96621.31;4250020;27;5647;-65
2022/04/12 09:42:38;;;;;;;;;;;;;;;12.00;58.81;96621.69;4232968;28;5645;-65
2022/04/12 09:44:40;;;;;;;;;;;;;;;12.01;58.94;96617.25;4235453;28;5732;-65
2022/04/12 09:46:44;;;;;;;;;;;;;;;12.06;60.16;96620.88;4235479;28;5747;-64
2022/04/12 09:48:48;;;;;;;;;;;;;;;12.08;59.76;96618.03;4235428;28;5705;-65
2022/04/12 09:50:51;;;;;;;;;;;;;;;12.06;59.48;96620.88;4233806;27;5901;-65
2022/04/12 09:52:56;;;;;;;;;;;;;;;12.09;59.73;96614.34;4235716;28;5728;-66
2022/04/12 09:54:58;;;;;;;;;;;;;;;12.26;59.72;96612.09;4233843;27;5683;-66
2022/04/12 09:57:03;;;;;;;;;;;;;;;12.27;59.16;96611.88;4235443;27;5746;-65
2022/04/12 09:59:20;;;;;;;;;;;;;;;12.35;58.61;96613.50;4241686;27;5816;-66
2022/04/12 10:01:23;;;;;;;;;;;;;;;12.40;58.06;96613.69;4251465;27;5640;-66
2022/04/12 10:03:27;;;;;;;;;;;;;;;12.42;57.05;96608.97;4250732;27;5573;-66
2022/04/12 10:05:30;;;;;;;;;;;;;;;12.44;57.61;96601.63;4252355;27;5628;-66
2022/04/12 10:07:33;;;;;;;;;;;;;;;12.54;51.93;96602.00;4252733;27;5639;-65
2022/04/12 10:09:37;;;;;;;;;;;;;;;12.62;52.58;96599.13;4236826;27;5600;-66
2022/04/12 10:11:39;;;;;;;;;;;;;;;12.62;54.47;96593.81;4238265;27;5636;-66
2022/04/12 10:13:41;;;;;;;;;;;;;;;12.76;54.30;96592.72;4233805;28;5677;-66
2022/04/12 10:15:44;;;;;;;;;;;;;;;12.80;52.82;96585.97;4250841;27;7743;-66
2022/04/12 10:17:47;;;;;;;;;;;;;;;12.83;53.99;96590.03;4252059;27;5722;-65
2022/04/12 10:19:49;;;;;;;;;;;;;;;12.82;54.01;96589.22;4238127;27;5645;-66
2022/04/12 10:21:55;;;;;;;;;;;;;;;12.98;53.23;96587.09;4243430;27;5628;-67
2022/04/12 10:23:59;;;;;;;;;;;;;;;13.01;53.97;96591.97;4252321;27;5635;-66
2022/04/12 10:26:02;;;;;;;;;;;;;;;12.98;55.13;96581.78;4237501;27;5744;-66
2022/04/12 10:28:05;;;;;;;;;;;;;;;12.92;55.98;96582.66;4234785;28;5637;-66
2022/04/12 10:30:20;;;;;;;;;;;;;;;12.99;55.74;96578.91;4234908;27;5705;-66
2022/04/12 10:32:22;;;;;;;;;;;;;;;12.94;55.65;96581.41;4246945;27;5703;-66
2022/04/12 10:34:33;;;;;;;;;;;;;;;13.01;56.96;96571.56;4250366;27;5373;-66
2022/04/12 10:36:54;;;;;;;;;;;;;;;12.88;57.20;96571.63;4234885;28;7700;-67
2022/04/12 10:39:17;;;;;;;;;;;;;;;13.12;56.84;96578.03;4233293;28;5695;-67
2022/04/12 10:41:25;;;;;;;;;;;;;;;13.20;56.88;96569.84;4236756;27;5751;-66
2022/04/12 10:43:29;;;;;;;;;;;;;;;13.08;56.28;96568.88;4229116;28;5770;-66
2022/04/12 10:45:33;;;;;;;;;;;;;;;13.08;56.33;96568.88;4233492;27;5803;-66
2022/04/12 10:47:45;;;;;;;;;;;;;;;13.13;56.65;96569.84;4234232;28;5704;-66
2022/04/12 10:49:51;;;;;;;;;;;;;;;13.27;56.36;96562.66;4234356;27;5708;-67
2022/04/12 10:52:00;;;;;;;;;;;;;;;13.26;55.13;96563.69;4233975;28;5645;-66
2022/04/12 10:54:01;;;;;;;;;;;;;;;13.31;55.13;96553.22;4234540;28;5772;-66
2022/04/12 10:56:05;;;;;;;;;;;;;;;13.36;56.25;96558.72;4247842;27;5792;-67
2022/04/12 10:58:27;;;;;;;;;;;;;;;13.34;57.04;96550.13;4251799;27;5687;-66
2022/04/12 11:00:30;;;;;;;;;;;;;;;13.36;55.37;96537.47;4246820;27;5737;-67
2022/04/12 11:02:37;;;;;;;;;;;;;;;13.38;55.74;96546.03;4233965;28;5744;-67
2022/04/12 11:04:39;;;;;;;;;;;;;;;13.45;55.90;96545.16;4234442;28;5684;-67
2022/04/12 11:06:46;;;;;;;;;;;;;;;13.39;55.47;96541.53;4233968;27;6005;-67
2022/04/12 11:08:50;;;;;;;;;;;;;;;13.41;54.11;96534.16;4234607;27;5722;-67
2022/04/12 11:10:52;;;;;;;;;;;;;;;13.53;53.22;96543.03;4250180;27;6344;-67
2022/04/12 11:13:06;;;;;;;;;;;;;;;13.56;50.60;96536.47;4239121;27;5627;-67
2022/04/12 11:15:22;;;;;;;;;;;;;;;13.63;51.97;96535.38;4245490;27;5697;-67
2022/04/12 11:17:29;;;;;;;;;;;;;;;13.69;51.98;96529.19;4233809;28;5867;-66
2022/04/12 11:19:48;;;;;;;;;;;;;;;13.68;50.68;96527.56;4234116;28;5709;-66
2022/04/12 11:21:50;;;;;;;;;;;;;;;13.69;49.52;96529.19;4234182;28;5646;-67
2022/04/12 11:24:00;;;;;;;;;;;;;;;13.77;50.78;96527.28;4246791;27;5694;-66
2022/04/12 11:26:40;;;;;;;;;;;;;;;13.80;48.58;96527.66;4251051;27;5718;-66
2022/04/12 11:28:45;;;;;;;;;;;;;;;13.88;49.52;96532.69;4251291;27;6129;-67
2022/04/12 11:30:55;;;;;;;;;;;;;;;13.83;49.54;96534.41;4249526;27;5692;-66
2022/04/12 11:32:57;;;;;;;;;;;;;;;13.83;48.56;96532.56;4250810;27;5748;-66
2022/04/12 11:34:59;;;;;;;;;;;;;;;13.89;50.06;96525.53;4243780;27;5639;-67
2022/04/12 11:37:19;;;;;;;;;;;;;;;13.96;49.91;96524.44;4250841;27;5731;-66
2022/04/12 11:39:30;;;;;;;;;;;;;;;14.07;49.37;96517.56;4234533;27;5749;-66
2022/04/12 11:41:32;;;;;;;;;;;;;;;14.11;49.22;96513.44;4248123;27;5825;-67
2022/04/12 11:43:34;;;;;;;;;;;;;;;14.01;48.99;96514.97;4250896;27;7686;-67
2022/04/12 11:45:36;;;;;;;;;;;;;;;14.19;48.98;96517.66;4248164;27;5597;-67
2022/04/12 11:47:44;;;;;;;;;;;;;;;14.24;49.27;96509.81;4233520;28;5744;-67
2022/04/12 11:49:45;;;;;;;;;;;;;;;14.35;49.05;96519.69;4234065;27;5646;-67
2022/04/12 11:51:48;;;;;;;;;;;;;;;14.52;48.00;96509.31;4233691;28;5753;-67
2022/04/12 11:53:49;;;;;;;;;;;;;;;14.57;48.76;96509.41;4233924;28;5658;-68
2022/04/12 11:55:58;;;;;;;;;;;;;;;14.67;48.38;96501.72;4237458;27;5711;-66
2022/04/12 11:58:00;;;;;;;;;;;;;;;14.66;48.22;96507.28;4238031;27;5657;-66
2022/04/12 12:00:03;;;;;;;;;;;;;;;14.68;48.96;96506.00;4234042;28;5809;-66
2022/04/12 12:02:07;;;;;;;;;;;;;;;14.68;47.25;96507.84;4232117;28;5808;-67
2022/04/12 12:04:09;;;;;;;;;;;;;;;14.73;48.70;96505.34;4233787;28;5638;-66
2022/04/12 12:06:11;;;;;;;;;;;;;;;14.70;47.11;96500.44;4233335;28;7703;-66
2022/04/12 12:08:17;;;;;;;;;;;;;;;14.81;48.20;96499.69;4233026;27;5661;-66
2022/04/12 12:10:18;;;;;;;;;;;;;;;14.93;47.85;96494.38;4233713;28;5658;-65
2022/04/12 12:12:29;;;;;;;;;;;;;;;14.98;48.23;96494.53;4242567;27;5763;-66
2022/04/12 12:14:32;;;;;;;;;;;;;;;15.04;47.24;96494.41;4248214;27;5676;-67
2022/04/12 12:16:33;;;;;;;;;;;;;;;15.11;48.40;96491.66;4233103;27;5657;-67
2022/04/12 12:18:42;;;;;;;;;;;;;;;15.13;47.62;96501.03;4233209;28;5916;-67
2022/04/12 12:20:47;;;;;;;;;;;;;;;15.12;47.24;96487.97;4233585;28;5801;-66
2022/04/12 12:22:55;;;;;;;;;;;;;;;15.17;47.38;96487.25;4236140;27;5653;-66
2022/04/12 12:24:57;;;;;;;;;;;;;;;15.22;47.42;96490.06;4248525;27;5822;-66
2022/04/12 12:26:59;;;;;;;;;;;;;;;15.24;47.61;96485.31;4254111;27;5745;-66
2022/04/12 12:29:00;;;;;;;;;;;;;;;15.25;47.08;96481.59;4252801;27;5668;-66
2022/04/12 12:31:05;;;;;;;;;;;;;;;15.32;46.97;96482.31;4235348;27;5616;-66
2022/04/12 12:33:10;;;;;;;;;;;;;;;15.28;47.40;96481.13;4253746;27;5644;-66
2022/04/12 12:35:14;;;;;;;;;;;;;;;15.39;47.42;96485.66;4253911;27;6320;-67
2022/04/12 12:37:16;;;;;;;;;;;;;;;15.40;47.20;96482.78;4253281;27;7323;-67
2022/04/12 12:39:19;;;;;;;;;;;;;;;15.40;46.48;96487.28;4254138;27;5710;-66
2022/04/12 12:41:28;;;;;;;;;;;;;;;15.43;45.66;96484.19;4253688;27;5798;-66
2022/04/12 12:43:33;;;;;;;;;;;;;;;15.42;46.12;96478.03;4253970;27;5741;-66
2022/04/12 12:45:42;;;;;;;;;;;;;;;15.50;45.60;96478.72;4253802;27;5628;-67
2022/04/12 12:47:46;;;;;;;;;;;;;;;15.54;46.24;96485.22;4250077;27;5812;-66
2022/04/12 12:49:50;;;;;;;;;;;;;;;15.55;45.95;96482.31;4235484;27;5759;-67
2022/04/12 12:51:52;;;;;;;;;;;;;;;15.59;45.93;96483.47;4234963;28;5741;-67
2022/04/12 12:54:01;;;;;;;;;;;;;;;15.66;46.83;96478.06;4236744;28;5720;-66
2022/04/12 12:56:14;;;;;;;;;;;;;;;15.66;46.13;96470.88;4236925;28;5626;-66
2022/04/12 12:58:20;;;;;;;;;;;;;;;15.68;47.39;96471.47;4236255;27;5807;-67
2022/04/12 13:00:27;;;;;;;;;;;;;;;15.64;46.76;96470.31;4236578;28;5808;-67
2022/04/12 13:02:34;;;;;;;;;;;;;;;15.64;46.51;96470.31;4235896;28;5770;-67
2022/04/12 13:04:37;;;;;;;;;;;;;;;15.65;48.19;96471.94;4238489;27;5657;-66
2022/04/12 13:06:38;;;;;;;;;;;;;;;15.69;48.66;96467.75;4253353;27;5675;-66
2022/04/12 13:08:43;;;;;;;;;;;;;;;15.62;49.62;96475.03;4241034;27;5213;-66
2022/04/12 13:10:45;;;;;;;;;;;;;;;15.62;48.96;96466.22;4243456;27;5620;-66
2022/04/12 13:12:47;;;;;;;;;;;;;;;15.63;49.21;96465.22;4240757;27;5833;-67
2022/04/12 13:14:49;;;;;;;;;;;;;;;15.72;48.89;96458.47;4253285;27;6851;-66
2022/04/12 13:16:57;;;;;;;;;;;;;;;15.78;46.80;96459.41;4253599;27;5640;-67
2022/04/12 13:19:03;;;;;;;;;;;;;;;15.84;47.40;96458.44;4246652;27;5714;-66
2022/04/12 13:21:11;;;;;;;;;;;;;;;15.85;46.48;96460.06;4236708;28;6385;-67
2022/04/12 13:23:13;;;;;;;;;;;;;;;15.80;46.08;96454.66;4234834;28;5605;-66
2022/04/12 13:25:18;;;;;;;;;;;;;;;15.89;46.29;96455.91;4236411;27;5092;-66
2022/04/12 13:27:21;;;;;;;;;;;;;;;15.85;46.89;96454.75;4236902;28;6319;-67
2022/04/12 13:29:24;;;;;;;;;;;;;;;15.83;46.79;96456.84;4235027;28;5706;-67
2022/04/12 13:31:26;;;;;;;;;;;;;;;15.89;46.70;96455.91;4236196;28;6029;-67
2022/04/12 13:33:28;;;;;;;;;;;;;;;15.90;46.04;96452.19;4235563;28;5709;-67
2022/04/12 13:35:30;;;;;;;;;;;;;;;15.85;45.64;96449.41;4236450;28;5642;-66
2022/04/12 13:37:34;;;;;;;;;;;;;;;15.89;46.47;96450.56;4236465;28;5673;-67
2022/04/12 13:39:36;;;;;;;;;;;;;;;15.88;45.43;96447.09;4234709;28;5609;-67
2022/04/12 13:41:39;;;;;;;;;;;;;;;15.94;46.08;96448.00;4236364;28;5760;-67
2022/04/12 13:43:42;;;;;;;;;;;;;;;15.92;46.18;96442.09;4234629;28;5608;-67
2022/04/12 13:45:44;;;;;;;;;;;;;;;15.97;45.71;96448.38;4236132;28;5091;-67
2022/04/12 13:47:46;;;;;;;;;;;;;;;16.00;45.52;96437.22;4235874;28;5669;-67
2022/04/12 13:49:48;;;;;;;;;;;;;;;16.05;46.00;96443.69;4234632;28;5680;-67
2022/04/12 13:51:50;;;;;;;;;;;;;;;16.06;46.22;96435.47;4235808;28;5649;-67
2022/04/12 13:53:52;;;;;;;;;;;;;;;16.08;45.22;96435.22;4235912;28;5654;-67
2022/04/12 13:55:58;;;;;;;;;;;;;;;16.01;43.13;96440.69;4236212;28;5198;-67
2022/04/12 13:58:00;;;;;;;;;;;;;;;16.04;44.76;96431.41;4231977;28;5645;-67
2022/04/12 14:00:05;;;;;;;;;;;;;;;16.07;45.30;96426.41;4235605;28;5668;-67
2022/04/12 14:02:07;;;;;;;;;;;;;;;16.09;43.63;96429.66;4235200;28;5661;-67
2022/04/12 14:04:09;;;;;;;;;;;;;;;16.12;45.21;96423.84;4229518;28;6341;-67
2022/04/12 14:06:12;;;;;;;;;;;;;;;16.20;45.71;96420.81;4217510;28;5749;-66
2022/04/12 14:08:15;;;;;;;;;;;;;;;16.27;45.12;96426.00;4233116;28;5763;-66
2022/04/12 14:10:16;;;;;;;;;;;;;;;16.27;45.08;96421.47;4217176;28;5611;-66
2022/04/12 14:12:18;;;;;;;;;;;;;;;16.34;45.36;96416.00;4203777;28;5686;-66
2022/04/12 14:14:20;;;;;;;;;;;;;;;16.42;46.02;96412.13;4193015;28;5705;-66
2022/04/12 14:16:22;;;;;;;;;;;;;;;16.52;44.34;96423.00;4185388;28;5792;-67
2022/04/12 14:18:23;;;;;;;;;;;;;;;16.58;43.00;96427.38;4194050;28;5696;-66
2022/04/12 14:20:26;;;;;;;;;;;;;;;16.63;43.90;96423.97;4191152;28;5721;-67
2022/04/12 14:22:28;;;;;;;;;;;;;;;16.68;43.84;96416.91;4184741;28;5701;-66
2022/04/12 14:24:29;;;;;;;;;;;;;;;16.71;43.91;96411.09;4188387;28;5716;-67
2022/04/12 14:26:31;;;;;;;;;;;;;;;16.70;43.10;96409.47;4185917;28;5844;-66
2022/04/12 14:28:36;;;;;;;;;;;;;;;16.72;42.52;96404.69;4185083;28;5705;-68
2022/04/12 14:30:38;;;;;;;;;;;;;;;16.73;42.67;96402.84;4192240;28;5890;-66
2022/04/12 14:32:40;;;;;;;;;;;;;;;16.70;42.60;96409.47;4186664;28;5859;-68
2022/04/12 14:34:41;;;;;;;;;;;;;;;16.68;43.68;96408.91;4201913;28;5878;-68
2022/04/12 14:36:43;;;;;;;;;;;;;;;16.75;43.03;96411.41;4191086;28;5780;-66
2022/04/12 14:38:46;;;;;;;;;;;;;;;16.76;43.79;96419.19;4213629;28;5706;-66
2022/04/12 14:40:49;;;;;;;;;;;;;;;16.80;43.45;96403.50;4217493;28;5698;-66
2022/04/12 14:42:51;;;;;;;;;;;;;;;16.75;43.57;96404.22;4208448;28;5794;-67
2022/04/12 14:44:52;;;;;;;;;;;;;;;16.75;43.65;96406.06;4200819;28;5671;-66
2022/04/12 14:46:54;;;;;;;;;;;;;;;16.72;43.58;96395.88;4198172;28;5791;-66
2022/04/12 14:48:56;;;;;;;;;;;;;;;16.67;44.00;96390.44;4187678;28;5814;-67
2022/04/12 14:50:59;;;;;;;;;;;;;;;16.66;43.03;96386.16;4202143;28;5809;-67
2022/04/12 14:53:00;;;;;;;;;;;;;;;16.69;43.87;96397.19;4192449;28;5815;-67
2022/04/12 14:55:03;;;;;;;;;;;;;;;16.67;43.72;96387.78;4210080;28;5765;-67
2022/04/12 14:57:05;;;;;;;;;;;;;;;16.67;44.50;96385.09;4212639;28;5830;-67
2022/04/12 14:59:06;;;;;;;;;;;;;;;16.70;44.18;96390.78;4211941;28;5825;-67
2022/04/12 15:01:08;;;;;;;;;;;;;;;16.65;44.19;96396.03;4212688;28;5769;-68
2022/04/12 15:03:10;;;;;;;;;;;;;;;16.67;44.46;96387.78;4202253;28;5765;-68
2022/04/12 15:05:12;;;;;;;;;;;;;;;16.68;44.38;96395.56;4207288;28;5772;-67